Time;durP1;ratioP1;P1;durP2;ratioP2;P2;SDS_P1;SDS_P2;PMS_P1;PMS_P2;Temp;Humidity;BMP_temperature;BMP_pressure;BME280_temperature;BME280_humidity;BME280_pressure;Samples;Min_cycle;Max_cycle;Signal;HPM_P1;HPM_P2
2024/03/20 00:02:04;;;;;;;;;44.80;35.80;;;;;6.38;100.00;99430.47;6100696;28;96463;-56
2024/03/20 00:05:08;;;;;;;;;38.25;32.75;;;;;6.38;100.00;99417.06;6100249;28;96324;-56
2024/03/20 00:08:10;;;;;;;;;38.00;33.00;;;;;6.40;100.00;99415.03;6100089;28;96759;-56
2024/03/20 00:11:12;;;;;;;;;38.00;32.50;;;;;6.37;100.00;99418.09;6084845;28;96465;-56
2024/03/20 00:14:16;;;;;;;;;32.60;29.80;;;;;6.36;100.00;99412.91;6091767;28;96398;-56
2024/03/20 00:17:18;;;;;;;;;37.80;33.00;;;;;6.15;100.00;99386.00;6065086;28;96311;-56
2024/03/20 00:20:21;;;;;;;;;33.80;30.00;;;;;6.22;100.00;99414.53;6090712;28;96320;-56
2024/03/20 00:23:23;;;;;;;;;39.60;32.00;;;;;6.20;100.00;99407.72;6076891;28;96765;-56
2024/03/20 00:26:26;;;;;;;;;40.40;33.00;;;;;6.17;100.00;99402.69;6085126;28;96340;-56
2024/03/20 00:29:30;;;;;;;;;43.80;33.00;;;;;6.08;100.00;99394.75;6077177;28;97280;-56
2024/03/20 00:32:32;;;;;;;;;35.20;32.00;;;;;6.09;100.00;99400.94;6100293;28;96352;-56
2024/03/20 00:35:37;;;;;;;;;42.60;33.40;;;;;6.05;100.00;99387.09;6084595;28;97254;-56
2024/03/20 00:38:41;;;;;;;;;43.60;35.20;;;;;6.00;100.00;99380.63;6099970;28;96649;-56
2024/03/20 00:41:43;;;;;;;;;36.50;31.25;;;;;6.00;100.00;99385.97;6100460;28;96296;-56
2024/03/20 00:44:46;;;;;;;;;38.00;32.00;;;;;6.01;100.00;99393.78;6072174;28;96308;-56
2024/03/20 00:47:49;;;;;;;;;37.60;32.00;;;;;6.00;100.00;99394.00;6099370;28;96329;-56
2024/03/20 00:50:51;;;;;;;;;41.00;33.00;;;;;6.00;100.00;99388.63;6089521;28;97587;-56
2024/03/20 00:53:53;;;;;;;;;35.00;30.50;;;;;5.98;100.00;99388.81;6061105;28;98559;-56
2024/03/20 00:56:55;;;;;;;;;37.20;32.00;;;;;5.95;100.00;99386.50;6080669;28;96377;-56
2024/03/20 00:59:59;;;;;;;;;40.20;34.20;;;;;5.87;100.00;99388.41;6099713;28;96377;-56
2024/03/20 01:03:01;;;;;;;;;39.40;33.60;;;;;5.79;100.00;99385.75;6065506;28;96341;-56
2024/03/20 01:06:04;;;;;;;;;36.20;32.00;;;;;5.73;100.00;99386.47;6064988;28;98388;-56
2024/03/20 01:09:06;;;;;;;;;35.00;31.20;;;;;5.64;100.00;99383.88;6100016;28;99726;-56
2024/03/20 01:12:08;;;;;;;;;33.75;31.00;;;;;5.49;100.00;99368.75;6087023;28;96625;-56
2024/03/20 01:15:12;;;;;;;;;35.20;31.00;;;;;5.44;100.00;99379.16;6091234;28;96330;-56
2024/03/20 01:18:16;;;;;;;;;38.60;32.20;;;;;5.33;100.00;99371.53;6074669;28;99183;-56
2024/03/20 01:21:18;;;;;;;;;37.00;32.00;;;;;5.24;100.00;99374.25;6075303;28;96299;-56
2024/03/20 01:24:20;;;;;;;;;41.67;35.00;;;;;5.19;100.00;99370.44;6087194;28;96532;-56
2024/03/20 01:27:22;;;;;;;;;41.00;32.80;;;;;5.17;100.00;99364.44;6074963;28;96642;-56
2024/03/20 01:30:26;;;;;;;;;40.00;33.40;;;;;5.12;100.00;99364.16;6079056;28;96854;-56
2024/03/20 01:33:28;;;;;;;;;37.80;32.00;;;;;5.17;100.00;99369.81;6094463;28;96510;-56
2024/03/20 01:36:30;;;;;;;;;33.25;28.50;;;;;5.17;100.00;99378.66;6090756;28;96982;-56
2024/03/20 01:39:33;;;;;;;;;34.60;31.20;;;;;5.15;100.00;99366.47;6083991;28;96436;-56
2024/03/20 01:42:35;;;;;;;;;38.60;31.60;;;;;5.13;100.00;99363.16;6114368;28;96677;-56
2024/03/20 01:45:39;;;;;;;;;33.25;31.00;;;;;5.00;100.00;99344.16;6099067;28;96512;-56
2024/03/20 01:48:41;;;;;;;;;38.00;32.50;;;;;5.10;100.00;99363.47;6091931;28;96396;-56
2024/03/20 01:51:43;;;;;;;;;41.40;33.00;;;;;4.88;100.00;99335.72;6074061;28;97786;-56
2024/03/20 01:54:45;;;;;;;;;42.00;33.00;;;;;5.03;100.00;99371.38;6075620;28;97502;-56
2024/03/20 01:57:48;;;;;;;;;41.00;33.00;;;;;5.03;100.00;99371.38;6098845;28;96582;-56
2024/03/20 02:00:51;;;;;;;;;40.60;34.60;;;;;5.00;100.00;99370.88;6084354;28;96272;-55
2024/03/20 02:03:54;;;;;;;;;38.00;33.00;;;;;4.84;100.00;99352.25;6156096;23;96585;-56
2024/03/20 02:06:56;;;;;;;;;41.00;33.50;;;;;4.95;100.00;99368.72;6131077;28;96381;-54
2024/03/20 02:09:58;;;;;;;;;42.40;35.40;;;;;4.94;100.00;99367.06;6135001;28;96419;-54
2024/03/20 02:13:05;;;;;;;;;40.00;33.00;;;;;4.92;100.00;99361.06;6120843;28;96321;-54
2024/03/20 02:16:09;;;;;;;;;41.00;34.20;;;;;4.91;100.00;99366.56;6126815;28;96351;-54
2024/03/20 02:19:11;;;;;;;;;38.00;33.00;;;;;4.90;100.00;99362.22;6143151;28;96305;-54
2024/03/20 02:22:14;;;;;;;;;44.60;36.00;;;;;4.90;100.00;99365.75;6121598;28;96418;-54
2024/03/20 02:25:16;;;;;;;;;43.40;35.00;;;;;4.88;100.00;99367.78;6105805;28;96373;-54
2024/03/20 02:28:19;;;;;;;;;47.00;38.00;;;;;4.87;100.00;99376.78;6122236;28;96475;-54
2024/03/20 02:31:21;;;;;;;;;48.50;39.00;;;;;4.88;100.00;99373.13;6127206;28;96457;-54
2024/03/20 02:34:23;;;;;;;;;45.80;37.40;;;;;4.89;100.00;99371.28;6104981;28;96588;-54
2024/03/20 02:37:27;;;;;;;;;45.00;38.00;;;;;4.88;100.00;99373.13;6112417;28;99410;-54
2024/03/20 02:40:29;;;;;;;;;47.00;39.00;;;;;4.88;100.00;99377.63;6102970;28;98283;-54
2024/03/20 02:43:31;;;;;;;;;47.40;36.80;;;;;4.83;100.00;99372.81;6120368;28;97313;-54
2024/03/20 02:46:34;;;;;;;;;47.40;37.00;;;;;4.78;100.00;99364.47;6118305;28;97134;-54
2024/03/20 02:49:36;;;;;;;;;47.40;37.80;;;;;4.76;100.00;99363.81;6118683;28;96576;-54
2024/03/20 02:52:40;;;;;;;;;48.40;39.00;;;;;4.73;100.00;99361.50;6098148;28;96920;-54
2024/03/20 02:55:43;;;;;;;;;47.00;36.80;;;;;4.72;100.00;99344.63;6087311;28;96529;-55
2024/03/20 02:58:46;;;;;;;;;48.00;40.00;;;;;4.73;100.00;99353.47;6073152;28;100245;-54
2024/03/20 03:01:48;;;;;;;;;44.80;36.00;;;;;4.68;100.00;99343.31;6105579;28;97369;-54
2024/03/20 03:04:50;;;;;;;;;47.60;38.00;;;;;4.67;100.00;99346.16;6105305;28;96466;-54
2024/03/20 03:07:54;;;;;;;;;45.60;38.00;;;;;4.65;100.00;99351.66;6105073;28;96484;-54
2024/03/20 03:10:57;;;;;;;;;43.20;36.00;;;;;4.63;100.00;99348.34;6089428;28;98534;-54
2024/03/20 03:13:59;;;;;;;;;45.20;36.80;;;;;4.65;100.00;99351.66;6118530;28;97181;-54
2024/03/20 03:17:02;;;;;;;;;46.00;38.00;;;;;4.43;100.00;99316.88;6097192;28;96399;-54
2024/03/20 03:20:07;;;;;;;;;47.00;38.00;;;;;4.63;100.00;99351.00;6102446;28;97431;-54
2024/03/20 03:23:15;;;;;;;;;43.00;35.40;;;;;4.67;100.00;99357.66;6102557;28;96745;-54
2024/03/20 03:26:17;;;;;;;;;45.00;36.00;;;;;4.68;100.00;99363.84;6110590;28;96135;-54
2024/03/20 03:29:20;;;;;;;;;46.80;38.00;;;;;4.65;100.00;99359.66;6120430;28;96904;-54
2024/03/20 03:32:22;;;;;;;;;45.00;36.40;;;;;4.65;100.00;99358.81;6099304;28;97633;-54
2024/03/20 03:35:24;;;;;;;;;46.60;36.60;;;;;4.64;100.00;99368.66;6090791;28;98507;-54
2024/03/20 03:38:28;;;;;;;;;40.80;34.00;;;;;4.63;100.00;99363.53;6121426;28;96767;-54
2024/03/20 03:41:30;;;;;;;;;48.00;35.00;;;;;4.61;100.00;99361.00;6119580;28;96350;-54
2024/03/20 03:44:33;;;;;;;;;45.00;35.20;;;;;4.57;100.00;99354.34;6120442;28;97048;-54
2024/03/20 03:47:35;;;;;;;;;46.40;37.40;;;;;4.56;100.00;99360.69;6119980;28;96543;-54
2024/03/20 03:50:37;;;;;;;;;46.80;38.00;;;;;4.61;100.00;99363.69;6119167;28;96612;-54
2024/03/20 03:53:41;;;;;;;;;46.00;36.80;;;;;4.53;100.00;99360.22;6117765;28;96743;-54
2024/03/20 03:56:43;;;;;;;;;45.00;35.00;;;;;4.52;100.00;99361.22;6120857;28;96925;-54
2024/03/20 03:59:45;;;;;;;;;40.00;33.00;;;;;4.50;100.00;99365.88;6105570;28;96570;-54
2024/03/20 04:02:48;;;;;;;;;43.60;37.00;;;;;4.48;100.00;99371.41;6084586;28;99431;-54
2024/03/20 04:05:51;;;;;;;;;41.00;34.00;;;;;4.46;100.00;99375.25;6079875;28;96843;-54
2024/03/20 04:08:55;;;;;;;;;44.00;36.00;;;;;4.26;100.00;99359.59;6096801;28;96652;-54
2024/03/20 04:11:58;;;;;;;;;43.75;35.75;;;;;4.30;100.00;99368.94;6088597;28;97501;-54
2024/03/20 04:15:00;;;;;;;;;39.20;33.80;;;;;4.30;100.00;99378.81;6112797;28;96930;-54
2024/03/20 04:18:03;;;;;;;;;43.80;35.00;;;;;4.26;100.00;99385.47;6091040;28;96313;-54
2024/03/20 04:21:05;;;;;;;;;41.00;33.00;;;;;4.22;100.00;99381.47;6094252;28;96683;-54
2024/03/20 04:24:08;;;;;;;;;45.00;35.00;;;;;4.23;100.00;99377.81;6116589;28;96765;-52
2024/03/20 04:27:11;;;;;;;;;43.25;35.00;;;;;4.09;100.00;99354.47;6131827;28;96398;-52
2024/03/20 04:30:13;;;;;;;;;39.80;34.40;;;;;4.17;100.00;99373.13;6110972;28;97288;-52
2024/03/20 04:33:16;;;;;;;;;41.50;35.00;;;;;4.02;100.00;99362.31;6101123;28;96716;-53
2024/03/20 04:36:18;;;;;;;;;39.75;33.00;;;;;4.02;100.00;99367.66;6111113;28;96550;-52
2024/03/20 04:39:29;;;;;;;;;42.60;34.60;;;;;4.06;100.00;99378.81;6108838;28;96894;-52
2024/03/20 04:42:31;;;;;;;;;43.60;34.40;;;;;4.06;100.00;99370.81;6098581;28;96347;-52
2024/03/20 04:45:34;;;;;;;;;39.40;33.00;;;;;4.05;100.00;99377.16;6097085;28;96666;-53
2024/03/20 04:48:36;;;;;;;;;42.00;34.25;;;;;4.04;100.00;99378.16;6119116;28;96382;-52
2024/03/20 04:51:38;;;;;;;;;45.00;35.00;;;;;4.04;100.00;99368.31;6121826;28;96382;-52
2024/03/20 04:54:42;;;;;;;;;43.00;35.20;;;;;4.09;100.00;99373.16;6122922;28;96484;-52
2024/03/20 04:57:44;;;;;;;;;42.20;35.00;;;;;4.11;100.00;99369.31;6121358;28;96572;-52
2024/03/20 05:00:46;;;;;;;;;42.60;34.60;;;;;4.08;100.00;99364.31;6111893;28;96370;-52
2024/03/20 05:03:48;;;;;;;;;42.60;34.80;;;;;4.15;100.00;99369.81;6106444;28;97321;-52
2024/03/20 05:06:51;;;;;;;;;42.60;35.00;;;;;4.23;100.00;99375.13;6121259;28;96868;-52
2024/03/20 05:09:54;;;;;;;;;41.00;34.00;;;;;4.29;100.00;99374.47;6122586;28;96517;-53
2024/03/20 05:12:56;;;;;;;;;44.75;36.00;;;;;4.40;100.00;99378.63;6126057;28;97522;-54
2024/03/20 05:15:59;;;;;;;;;41.00;34.25;;;;;4.48;100.00;99373.25;6132807;28;96190;-52
2024/03/20 05:19:01;;;;;;;;;45.00;35.00;;;;;4.55;100.00;99374.22;6133424;28;96878;-52
2024/03/20 05:22:02;;;;;;;;;44.80;36.00;;;;;4.63;100.00;99380.38;6135546;28;96354;-52
2024/03/20 05:25:07;;;;;;;;;42.00;34.40;;;;;4.71;100.00;99372.34;6110216;28;98436;-52
2024/03/20 05:28:09;;;;;;;;;42.50;35.50;;;;;4.82;100.00;99372.97;6125475;28;96277;-52
2024/03/20 05:31:27;;;;;;;;;44.20;35.00;;;;;4.98;100.00;99392.44;6128152;28;96622;-52
2024/03/20 05:34:29;;;;;;;;;48.80;39.00;;;;;5.13;100.00;99381.84;6112773;28;96235;-54
2024/03/20 05:37:30;;;;;;;;;45.00;35.40;;;;;5.30;100.00;99382.56;6120858;28;96536;-54
2024/03/20 05:40:33;;;;;;;;;43.40;36.40;;;;;5.51;100.00;99390.81;6105900;28;97653;-54
2024/03/20 05:43:35;;;;;;;;;48.20;38.60;;;;;5.68;100.00;99393.19;6111859;28;96738;-54
2024/03/20 05:46:37;;;;;;;;;47.00;38.00;;;;;5.91;100.00;99395.09;6112977;28;96480;-54
2024/03/20 05:49:40;;;;;;;;;46.00;38.40;;;;;6.06;100.00;99393.25;6109126;28;99057;-54
2024/03/20 05:52:42;;;;;;;;;49.33;38.33;;;;;6.28;100.00;99391.56;6099460;28;97048;-55
2024/03/20 05:55:45;;;;;;;;;48.40;38.60;;;;;6.45;100.00;99398.44;6078944;28;98483;-55
2024/03/20 05:58:47;;;;;;;;;43.80;35.80;;;;;6.62;100.00;99402.59;6120420;28;96378;-55
2024/03/20 06:01:49;;;;;;;;;45.60;37.60;;;;;6.83;100.00;99397.34;6120299;28;97550;-55
2024/03/20 06:04:50;;;;;;;;;46.00;38.00;;;;;7.06;100.00;99393.72;6120661;28;96274;-55
2024/03/20 06:07:55;;;;;;;;;49.00;39.00;;;;;7.24;100.00;99394.13;6122167;28;96479;-55
2024/03/20 06:10:58;;;;;;;;;45.40;37.00;;;;;7.19;100.00;99361.69;6119354;28;96133;-55
2024/03/20 06:14:01;;;;;;;;;45.00;36.20;;;;;7.61;100.00;99403.88;6122049;28;96551;-55
2024/03/20 06:17:02;;;;;;;;;45.00;35.00;;;;;7.82;100.00;99401.16;6094611;28;96549;-55
2024/03/20 06:20:05;;;;;;;;;45.00;36.00;;;;;8.02;100.00;99396.81;6118867;28;96696;-55
2024/03/20 06:23:07;;;;;;;;;45.00;36.00;;;;;8.27;100.00;99397.25;6100404;28;96570;-55
2024/03/20 06:26:10;;;;;;;;;43.80;35.00;;;;;8.53;100.00;99400.19;6109963;28;96935;-55
2024/03/20 06:29:12;;;;;;;;;46.80;35.20;;;;;8.79;100.00;99393.31;6105552;28;96331;-55
2024/03/20 06:32:13;;;;;;;;;42.40;35.00;;;;;9.00;100.00;99396.72;6104818;28;97599;-55
2024/03/20 06:35:16;;;;;;;;;44.40;35.00;;;;;9.16;100.00;99403.66;6097704;28;96354;-55
2024/03/20 06:38:17;;;;;;;;;40.25;33.75;;;;;9.31;100.00;99403.50;6120921;28;96419;-55
2024/03/20 06:41:21;;;;;;;;;45.25;36.75;;;;;9.24;100.00;99378.41;6120686;28;96521;-55
2024/03/20 06:44:22;;;;;;;;;46.75;37.25;;;;;9.64;100.00;99414.38;6121490;28;96571;-55
2024/03/20 06:47:24;;;;;;;;;43.00;35.00;;;;;9.79;100.00;99404.25;6105431;28;96290;-55
2024/03/20 06:50:28;;;;;;;;;49.00;39.00;;;;;10.02;100.00;99408.22;6120616;28;97163;-55
2024/03/20 06:53:30;;;;;;;;;48.00;38.25;;;;;10.51;100.00;99416.97;6097389;28;96458;-55
2024/03/20 06:56:32;;;;;;;;;47.20;38.40;;;;;11.14;100.00;99413.53;6097376;28;96310;-55
2024/03/20 06:59:35;;;;;;;;;48.33;39.00;;;;;12.20;100.00;99413.88;6080977;28;98474;-55
2024/03/20 07:02:36;;;;;;;;;46.40;38.00;;;;;14.20;100.00;99423.91;6080553;28;99998;-55
2024/03/20 07:05:39;;;;;;;;;49.40;39.00;;;;;17.38;92.36;99409.50;6097053;28;96680;-55
2024/03/20 07:08:40;;;;;;;;;52.00;40.00;;;;;20.62;72.43;99405.09;6096441;28;96452;-56
2024/03/20 07:11:44;;;;;;;;;50.80;40.00;;;;;23.60;58.96;99410.72;6116987;28;96458;-56
2024/03/20 07:14:45;;;;;;;;;49.40;41.00;;;;;26.07;50.24;99399.28;6121508;28;96403;-56
2024/03/20 07:17:47;;;;;;;;;49.00;39.00;;;;;28.06;42.64;99401.22;6121340;28;96476;-56
2024/03/20 07:20:48;;;;;;;;;47.00;38.00;;;;;29.69;37.41;99395.38;6120884;28;96595;-56
2024/03/20 07:23:51;;;;;;;;;51.50;39.25;;;;;31.06;33.54;99395.47;6121610;28;96415;-57
2024/03/20 07:26:53;;;;;;;;;47.40;38.00;;;;;32.23;31.07;99391.75;6098568;28;96403;-57
2024/03/20 07:29:56;;;;;;;;;50.50;39.00;;;;;33.11;30.46;99385.09;6110067;28;96529;-57
2024/03/20 07:32:57;;;;;;;;;45.00;37.25;;;;;34.31;28.51;99385.22;6110650;28;96909;-57
2024/03/20 07:36:00;;;;;;;;;44.40;36.40;;;;;35.30;27.79;99385.59;6111390;28;97322;-57
2024/03/20 07:39:03;;;;;;;;;41.60;34.60;;;;;36.14;25.83;99388.16;6117049;28;96335;-57
2024/03/20 07:42:08;;;;;;;;;35.20;31.20;;;;;37.06;25.33;99381.66;6096806;28;96406;-57
2024/03/20 07:45:09;;;;;;;;;41.25;32.00;;;;;37.73;24.18;99381.47;6096691;28;96476;-57
2024/03/20 07:48:12;;;;;;;;;32.00;30.00;;;;;38.53;22.58;99351.38;6096965;28;96357;-57
2024/03/20 07:51:14;;;;;;;;;33.40;31.00;;;;;39.55;22.34;99380.97;6106304;28;97219;-57
2024/03/20 07:54:23;;;;;;;;;35.60;31.00;;;;;39.63;22.06;99376.97;6121114;28;96961;-57
2024/03/20 07:57:26;;;;;;;;;33.80;31.20;;;;;39.35;21.73;99372.09;6120969;28;96511;-57
2024/03/20 08:00:29;;;;;;;;;31.00;29.00;;;;;38.98;22.24;99372.47;6120680;28;96809;-57
2024/03/20 08:03:30;;;;;;;;;30.60;27.60;;;;;38.98;21.84;99376.09;6120623;28;96309;-57
2024/03/20 08:06:32;;;;;;;;;34.40;31.00;;;;;38.80;21.79;99380.06;6121009;28;96173;-57
2024/03/20 08:09:34;;;;;;;;;35.00;32.00;;;;;38.94;21.77;99380.94;6120572;28;96940;-57
2024/03/20 08:12:37;;;;;;;;;35.80;31.20;;;;;38.14;22.15;99388.59;6119176;28;96604;-57
2024/03/20 08:15:39;;;;;;;;;41.00;33.00;;;;;37.40;22.82;99387.22;6120855;28;96326;-57
2024/03/20 08:18:41;;;;;;;;;39.60;32.80;;;;;38.36;22.11;99372.63;6122956;28;96696;-57
2024/03/20 08:21:44;;;;;;;;;38.00;33.00;;;;;38.27;22.19;99374.97;6124553;28;96325;-57
2024/03/20 08:24:46;;;;;;;;;33.80;31.40;;;;;37.50;22.47;99378.88;6124571;28;96511;-57
2024/03/20 08:27:50;;;;;;;;;39.00;32.60;;;;;36.62;22.96;99366.72;6140854;28;97334;-57
2024/03/20 08:30:53;;;;;;;;;36.40;32.00;;;;;36.52;22.78;99375.81;6123899;28;96338;-57
2024/03/20 08:33:54;;;;;;;;;36.00;31.00;;;;;38.07;22.77;99373.69;6123506;28;96902;-59
2024/03/20 08:36:57;;;;;;;;;38.40;33.00;;;;;39.62;21.11;99381.78;6108597;28;97130;-60
2024/03/20 08:40:01;;;;;;;;;38.40;33.00;;;;;41.30;20.65;99379.97;6124212;28;96318;-60
2024/03/20 08:43:05;;;;;;;;;35.60;31.00;;;;;42.39;19.89;99371.63;6123899;28;96585;-60
2024/03/20 08:46:08;;;;;;;;;35.00;31.00;;;;;43.52;18.64;99356.63;6124257;28;96134;-59
2024/03/20 08:49:10;;;;;;;;;33.67;32.00;;;;;44.62;18.92;99351.63;6108459;28;96597;-59
2024/03/20 08:52:12;;;;;;;;;35.60;32.00;;;;;45.52;17.53;99349.09;6140055;28;96336;-59
2024/03/20 08:55:14;;;;;;;;;39.40;32.00;;;;;46.40;17.88;99336.50;6124308;28;96344;-59
2024/03/20 08:58:17;;;;;;;;;31.20;30.00;;;;;46.58;16.99;99333.16;6124073;28;96602;-59
2024/03/20 09:01:19;;;;;;;;;28.60;27.00;;;;;45.50;17.35;99339.41;6123516;28;96446;-59
2024/03/20 09:04:21;;;;;;;;;28.50;26.50;;;;;45.10;17.35;99331.03;6116747;28;96646;-59
2024/03/20 09:07:23;;;;;;;;;31.00;30.00;;;;;45.54;17.43;99334.44;6116081;28;96523;-59
2024/03/20 09:10:26;;;;;;;;;32.20;28.60;;;;;46.75;17.08;99329.72;6121109;28;96551;-59
2024/03/20 09:13:31;;;;;;;;;28.00;27.00;;;;;47.63;16.18;99323.16;6106346;28;96353;-59
2024/03/20 09:16:33;;;;;;;;;29.00;27.00;;;;;48.13;16.07;99321.38;6100535;28;96200;-59
2024/03/20 09:19:34;;;;;;;;;31.40;27.40;;;;;48.92;16.22;99323.59;6100530;28;96430;-59
2024/03/20 09:22:36;;;;;;;;;28.50;25.50;;;;;49.53;15.95;99327.59;6100488;28;97599;-59
2024/03/20 09:25:38;;;;;;;;;28.40;27.00;;;;;49.50;15.48;99322.81;6100553;28;96438;-59
2024/03/20 09:28:41;;;;;;;;;29.80;26.80;;;;;49.31;15.71;99321.16;6100195;28;96723;-59
2024/03/20 09:31:43;;;;;;;;;32.00;29.00;;;;;48.27;15.52;99314.28;6101041;28;96896;-59
2024/03/20 09:34:45;;;;;;;;;28.00;25.80;;;;;47.65;15.60;99309.19;6106834;28;96163;-59
2024/03/20 09:37:47;;;;;;;;;26.50;25.50;;;;;47.83;15.51;99304.91;6118913;28;96916;-59
2024/03/20 09:40:49;;;;;;;;;31.60;29.40;;;;;47.88;15.71;99302.25;6100255;28;96519;-59
2024/03/20 09:43:52;;;;;;;;;29.00;28.00;;;;;48.49;15.41;99295.84;6101005;28;96882;-59
2024/03/20 09:46:56;;;;;;;;;28.00;27.00;;;;;48.67;15.35;99298.00;6101809;28;96405;-59
2024/03/20 09:49:59;;;;;;;;;28.80;28.00;;;;;48.77;15.43;99284.56;6092106;28;98592;-59
2024/03/20 09:53:01;;;;;;;;;28.40;27.40;;;;;48.78;15.55;99301.25;6124644;28;96345;-59
2024/03/20 09:56:09;;;;;;;;;32.00;28.00;;;;;48.54;15.48;99285.84;6124868;28;96469;-59
2024/03/20 09:59:12;;;;;;;;;30.00;28.00;;;;;48.67;15.56;99291.50;6129284;28;96834;-59
2024/03/20 10:02:14;;;;;;;;;27.50;24.50;;;;;48.39;15.21;99291.34;6099035;28;96453;-59
2024/03/20 10:05:16;;;;;;;;;29.50;27.50;;;;;47.66;14.76;99290.78;6099724;28;96420;-59
2024/03/20 10:08:18;;;;;;;;;27.00;25.80;;;;;47.88;15.83;99272.88;6100387;28;96329;-59
2024/03/20 10:11:19;;;;;;;;;30.40;29.20;;;;;48.55;15.65;99273.16;6110088;28;96823;-59
2024/03/20 10:14:23;;;;;;;;;25.40;24.00;;;;;48.56;15.19;99269.81;6107418;28;96462;-57
2024/03/20 10:17:24;;;;;;;;;26.00;24.00;;;;;48.44;15.01;99269.91;6124468;28;96333;-57
2024/03/20 10:20:27;;;;;;;;;28.60;25.40;;;;;48.21;15.77;99265.47;6114553;28;96374;-58
2024/03/20 10:23:29;;;;;;;;;28.00;23.40;;;;;48.28;15.61;99253.78;6112934;28;96390;-58
2024/03/20 10:26:32;;;;;;;;;28.00;25.60;;;;;48.83;15.57;99263.41;6114749;28;96327;-58
2024/03/20 10:29:38;;;;;;;;;26.60;25.60;;;;;48.75;15.49;99241.28;6112289;28;97211;-57
2024/03/20 10:32:40;;;;;;;;;24.80;24.00;;;;;48.25;14.74;99242.47;6099179;28;97640;-57
2024/03/20 10:35:44;;;;;;;;;27.40;23.40;;;;;47.86;15.18;99235.38;6119515;28;96554;-58
2024/03/20 10:38:47;;;;;;;;;26.00;24.00;;;;;47.83;14.96;99239.16;6100422;28;98895;-58
2024/03/20 10:41:49;;;;;;;;;26.00;24.67;;;;;47.86;15.47;99227.59;6100281;28;98204;-58
2024/03/20 10:44:53;;;;;;;;;27.00;25.00;;;;;47.90;15.59;99233.19;6102237;28;96353;-57
2024/03/20 10:47:57;;;;;;;;;24.80;23.40;;;;;48.13;15.58;99227.00;6102383;28;96401;-58
2024/03/20 10:50:59;;;;;;;;;28.80;26.80;;;;;48.59;15.32;99222.28;6101608;28;96291;-58
2024/03/20 10:54:01;;;;;;;;;28.00;25.60;;;;;49.07;15.00;99232.19;6093384;28;96435;-57
2024/03/20 10:57:06;;;;;;;;;22.00;21.00;;;;;48.69;15.19;99221.09;6125649;28;96297;-57
2024/03/20 11:00:16;;;;;;;;;25.00;24.00;;;;;48.60;15.11;99224.69;6123964;28;96391;-57
2024/03/20 11:03:38;;;;;;;;;24.00;23.00;;;;;48.34;15.50;99220.44;6124746;28;96434;-57
2024/03/20 11:06:39;;;;;;;;;25.20;25.00;;;;;48.54;15.31;99217.19;6125303;28;96379;-57
2024/03/20 11:09:41;;;;;;;;;24.00;22.75;;;;;48.50;14.90;99208.75;6118779;28;96421;-57
2024/03/20 11:12:43;;;;;;;;;29.20;25.20;;;;;46.71;15.58;99206.34;6113744;28;98598;-57
2024/03/20 11:15:49;;;;;;;;;26.00;23.00;;;;;46.76;15.67;99200.06;6115270;28;96655;-57
2024/03/20 11:18:54;;;;;;;;;26.00;24.40;;;;;46.62;15.36;99203.41;6115477;28;96597;-58
2024/03/20 11:22:00;;;;;;;;;29.75;26.00;;;;;46.05;15.61;99195.78;6102418;28;96371;-58
2024/03/20 11:25:01;;;;;;;;;25.80;24.60;;;;;45.71;15.84;99162.22;6126041;28;96446;-59
2024/03/20 11:28:04;;;;;;;;;26.00;25.00;;;;;45.70;15.77;99178.50;6124307;28;96943;-59
2024/03/20 11:31:07;;;;;;;;;26.50;24.50;;;;;45.56;16.28;99181.75;6102865;28;96771;-59
2024/03/20 11:34:09;;;;;;;;;23.00;21.00;;;;;45.55;16.16;99182.25;6103475;28;96602;-59
2024/03/20 11:37:14;;;;;;;;;23.40;22.00;;;;;45.34;15.74;99185.66;6098372;28;96378;-59
2024/03/20 11:40:16;;;;;;;;;26.80;25.20;;;;;45.25;16.22;99175.72;6109211;28;96114;-59
2024/03/20 11:43:17;;;;;;;;;25.50;24.25;;;;;45.09;16.06;99181.44;6117766;28;96450;-59
2024/03/20 11:46:21;;;;;;;;;22.00;21.00;;;;;44.90;16.39;99176.66;6119159;28;96861;-59
2024/03/20 11:49:25;;;;;;;;;26.00;25.00;;;;;44.40;16.11;99171.38;6090626;28;99215;-59
2024/03/20 11:52:27;;;;;;;;;23.20;22.00;;;;;43.70;16.56;99174.53;6101382;28;97054;-59
2024/03/20 11:55:30;;;;;;;;;26.80;22.80;;;;;42.46;17.01;99150.44;6122016;28;96236;-59
2024/03/20 11:58:34;;;;;;;;;24.80;22.80;;;;;41.97;17.06;99160.47;6097358;28;98113;-58
2024/03/20 12:01:38;;;;;;;;;22.00;21.00;;;;;41.31;17.10;99160.84;6103072;28;96516;-58
2024/03/20 12:04:40;;;;;;;;;25.20;24.00;;;;;40.72;17.71;99155.34;6118443;28;96822;-58
2024/03/20 12:07:42;;;;;;;;;25.50;24.50;;;;;40.43;17.89;99156.78;6130941;28;96285;-58
2024/03/20 12:10:43;;;;;;;;;24.00;23.00;;;;;40.05;17.72;99147.34;6103986;28;96313;-58
2024/03/20 12:13:47;;;;;;;;;25.00;22.00;;;;;39.24;18.32;99145.66;6124400;28;97279;-58
2024/03/20 12:16:49;;;;;;;;;22.80;20.80;;;;;38.61;18.12;99141.66;6117447;28;97091;-58
2024/03/20 12:19:52;;;;;;;;;23.00;21.00;;;;;37.55;19.05;99136.59;6125271;28;96583;-58
2024/03/20 12:22:53;;;;;;;;;23.00;21.00;;;;;36.33;20.19;99129.69;6127412;28;96223;-58
2024/03/20 12:25:55;;;;;;;;;25.00;22.00;;;;;35.28;20.84;99138.47;6128801;28;96309;-58
2024/03/20 12:28:57;;;;;;;;;23.80;21.00;;;;;34.09;20.90;99138.88;6120916;28;96821;-58
2024/03/20 12:32:00;;;;;;;;;21.25;20.00;;;;;32.48;22.02;99135.72;6117504;28;96516;-58
2024/03/20 12:35:04;;;;;;;;;23.00;22.00;;;;;31.40;22.87;99135.91;6120470;28;97716;-58
2024/03/20 12:38:07;;;;;;;;;20.00;18.00;;;;;30.53;24.35;99132.78;6125932;28;96333;-58
2024/03/20 12:41:10;;;;;;;;;17.60;16.00;;;;;29.84;24.66;99138.28;6124221;28;96376;-58
2024/03/20 12:44:11;;;;;;;;;20.40;18.40;;;;;29.25;24.99;99127.34;6121343;28;96587;-58
2024/03/20 12:47:14;;;;;;;;;17.40;17.40;;;;;28.62;25.10;99128.41;6130261;28;96600;-58
2024/03/20 12:50:16;;;;;;;;;22.20;20.00;;;;;28.18;26.85;99130.56;6143508;28;96402;-57
2024/03/20 12:53:19;;;;;;;;;19.80;17.40;;;;;27.68;26.92;99133.09;6126015;28;96794;-57
2024/03/20 12:56:20;;;;;;;;;19.40;18.00;;;;;27.36;27.16;99134.41;6120040;28;96417;-57
2024/03/20 12:59:23;;;;;;;;;17.00;16.00;;;;;27.11;27.84;99124.97;6128683;28;96357;-57
2024/03/20 13:02:27;;;;;;;;;17.00;16.00;;;;;27.01;28.35;99128.03;6133181;28;96268;-57
2024/03/20 13:05:30;;;;;;;;;17.00;15.60;;;;;27.06;29.25;99127.06;6141592;28;96316;-57
2024/03/20 13:08:32;;;;;;;;;16.00;15.00;;;;;26.78;28.07;99120.94;6126550;28;96398;-57
2024/03/20 13:11:34;;;;;;;;;15.50;14.00;;;;;26.50;28.51;99127.88;6126527;28;96288;-57
2024/03/20 13:14:35;;;;;;;;;14.00;12.20;;;;;26.21;28.85;99129.25;6139357;28;96316;-57
2024/03/20 13:17:40;;;;;;;;;14.00;14.00;;;;;25.94;29.24;99131.34;6137963;28;96731;-57
2024/03/20 13:20:43;;;;;;;;;16.00;15.40;;;;;25.70;29.17;99124.22;6124872;28;96659;-57
2024/03/20 13:23:44;;;;;;;;;14.25;13.00;;;;;25.31;30.66;99124.09;6119376;28;96350;-57
2024/03/20 13:26:50;;;;;;;;;16.40;15.00;;;;;25.14;30.44;99126.69;6120700;28;96348;-58
2024/03/20 13:29:53;;;;;;;;;16.20;15.00;;;;;24.93;31.30;99124.38;6112664;28;96472;-57
2024/03/20 13:32:56;;;;;;;;;18.00;16.00;;;;;24.78;30.89;99121.09;6115988;28;96338;-57
2024/03/20 13:35:58;;;;;;;;;19.20;16.60;;;;;24.57;31.25;99110.53;6124588;28;97090;-57
2024/03/20 13:39:11;;;;;;;;;18.00;15.00;;;;;24.43;31.82;99117.19;6108737;28;96390;-57
2024/03/20 13:42:23;;;;;;;;;19.20;18.00;;;;;24.26;32.52;99111.44;6127590;28;97084;-57
2024/03/20 13:45:25;;;;;;;;;17.00;16.00;;;;;24.12;31.99;99112.25;6127232;28;96352;-57
2024/03/20 13:48:29;;;;;;;;;17.50;17.00;;;;;23.93;32.44;99116.19;6106546;28;96734;-57
2024/03/20 13:51:31;;;;;;;;;17.60;16.00;;;;;23.52;33.57;99091.31;6096597;28;98748;-57
2024/03/20 13:54:32;;;;;;;;;18.40;17.00;;;;;23.30;34.18;99113.94;6092030;28;99168;-56
2024/03/20 13:57:34;;;;;;;;;20.00;18.00;;;;;22.98;35.24;99117.44;6113053;28;96298;-56
2024/03/20 14:00:36;;;;;;;;;16.00;15.50;;;;;22.87;38.75;99110.47;6111943;28;97483;-56